createdAt,value
2018-02-08T00:00:03.547Z,28.50
2018-02-08T00:01:10.568Z,28.60
2018-02-08T00:02:17.359Z,30.50
2018-02-08T00:03:24.040Z,30.30
2018-02-08T00:04:30.711Z,31.70
2018-02-08T00:05:37.431Z,29.70
2018-02-08T00:06:52.419Z,30.60
2018-02-08T00:07:51.143Z,30.50
2018-02-08T00:08:57.864Z,30.30
2018-02-08T00:10:04.639Z,30.20
2018-02-08T00:11:11.421Z,31.30
2018-02-08T00:12:18.216Z,31.60
2018-02-08T00:13:24.983Z,31.40
2018-02-08T00:14:31.739Z,30.70
2018-02-08T00:15:38.502Z,32.00
2018-02-08T00:16:45.316Z,31.00
2018-02-08T00:17:52.087Z,31.50
2018-02-08T00:18:58.870Z,31.00
2018-02-08T00:20:05.776Z,31.90
2018-02-08T00:21:12.512Z,29.70
2018-02-08T00:22:19.291Z,31.70
2018-02-08T00:23:26.253Z,30.80
2018-02-08T00:24:33.072Z,30.00
2018-02-08T00:25:39.834Z,32.30
2018-02-08T00:26:46.800Z,32.90
2018-02-08T00:27:53.554Z,30.90
2018-02-08T00:29:00.301Z,32.50
2018-02-08T00:30:07.127Z,32.80
2018-02-08T00:31:13.903Z,32.60
2018-02-08T00:32:20.719Z,32.20
2018-02-08T00:33:27.591Z,32.20
2018-02-08T00:34:34.348Z,31.50
2018-02-08T00:35:41.136Z,32.80
2018-02-08T00:36:47.894Z,32.80
2018-02-08T00:37:54.759Z,30.40
2018-02-08T00:39:01.548Z,31.60
2018-02-08T00:40:08.483Z,33.50
2018-02-08T00:41:15.220Z,32.40
2018-02-08T00:42:22.013Z,32.00
2018-02-08T00:43:28.820Z,33.20
2018-02-08T00:44:35.607Z,33.80
2018-02-08T00:45:42.464Z,34.00
2018-02-08T00:46:49.211Z,33.30
2018-02-08T00:47:56.048Z,32.00
2018-02-08T00:49:02.803Z,32.60
2018-02-08T00:50:09.561Z,33.50
2018-02-08T00:51:16.315Z,31.50
2018-02-08T00:52:23.179Z,30.90
2018-02-08T00:53:29.947Z,32.30
2018-02-08T00:54:36.719Z,31.70
2018-02-08T00:55:43.470Z,32.10
2018-02-08T00:56:50.321Z,33.20
2018-02-08T00:57:57.068Z,32.60
2018-02-08T00:59:03.827Z,31.60
2018-02-08T01:00:10.592Z,31.80
2018-02-08T01:01:17.452Z,31.80
2018-02-08T01:02:24.200Z,29.90
2018-02-08T01:03:30.947Z,30.20
2018-02-08T01:04:37.671Z,31.00
2018-02-08T01:05:44.354Z,31.50
2018-02-08T01:06:51.043Z,30.90
2018-02-08T01:07:57.835Z,29.90
2018-02-08T01:09:04.520Z,28.40
2018-02-08T01:10:11.531Z,28.40
2018-02-08T01:11:18.295Z,27.60
2018-02-08T01:12:24.985Z,26.50
2018-02-08T01:13:31.772Z,26.90
2018-02-08T01:14:38.479Z,27.60
2018-02-08T01:15:45.179Z,28.00
2018-02-08T01:16:51.866Z,28.40
2018-02-08T01:17:58.559Z,29.00
2018-02-08T01:19:05.343Z,28.20
2018-02-08T01:20:12.032Z,29.80
2018-02-08T01:21:18.736Z,28.90
2018-02-08T01:22:25.456Z,29.60
2018-02-08T01:23:32.148Z,28.30
2018-02-08T01:24:38.845Z,27.50
2018-02-08T01:25:45.614Z,27.90
2018-02-08T01:26:52.340Z,26.90
2018-02-08T01:27:59.119Z,25.70
2018-02-08T01:29:05.804Z,26.20
2018-02-08T01:30:12.540Z,27.00
2018-02-08T01:31:19.247Z,25.90
2018-02-08T01:32:25.955Z,27.10
2018-02-08T01:33:32.619Z,25.80
2018-02-08T01:34:39.347Z,25.60
2018-02-08T01:35:46.027Z,25.30
2018-02-08T01:36:52.743Z,25.90
2018-02-08T01:37:59.529Z,25.50
2018-02-08T01:39:06.192Z,26.80
2018-02-08T01:40:13.364Z,26.30
2018-02-08T01:41:20.137Z,24.90
2018-02-08T01:42:27.079Z,25.60
2018-02-08T01:43:33.815Z,24.80
2018-02-08T01:44:40.500Z,25.40
2018-02-08T01:45:47.175Z,25.00
2018-02-08T01:46:53.915Z,25.20
2018-02-08T01:48:00.595Z,25.20
2018-02-08T01:49:07.290Z,25.90
2018-02-08T01:50:13.988Z,24.90
2018-02-08T01:51:20.685Z,24.70
2018-02-08T01:52:27.382Z,24.80
2018-02-08T01:53:34.291Z,25.80
2018-02-08T01:54:41.003Z,25.80
2018-02-08T01:55:47.691Z,23.60
2018-02-08T01:56:54.408Z,26.90
2018-02-08T01:58:01.107Z,26.20
2018-02-08T01:59:07.816Z,25.80
2018-02-08T02:00:14.599Z,25.90
2018-02-08T02:01:21.333Z,26.00
2018-02-08T02:02:28.044Z,25.60
2018-02-08T02:03:34.739Z,24.70
2018-02-08T02:04:41.467Z,25.60
2018-02-08T02:05:48.166Z,24.90
2018-02-08T02:06:54.928Z,24.60
2018-02-08T02:08:01.638Z,25.50
2018-02-08T02:09:08.424Z,23.20
2018-02-08T02:10:15.120Z,26.20
2018-02-08T02:11:21.808Z,23.90
2018-02-08T02:12:28.496Z,24.70
2018-02-08T02:13:35.230Z,27.20
2018-02-08T02:14:41.932Z,25.00
2018-02-08T02:15:48.604Z,26.20
2018-02-08T02:16:55.292Z,27.00
2018-02-08T02:18:01.988Z,27.10
2018-02-08T02:19:08.832Z,25.90
2018-02-08T02:20:15.691Z,26.20
2018-02-08T02:21:22.375Z,27.10
2018-02-08T02:22:29.079Z,27.10
2018-02-08T02:23:35.811Z,27.00
2018-02-08T02:24:42.613Z,25.70
2018-02-08T02:25:49.296Z,28.20
2018-02-08T02:26:56.000Z,25.90
2018-02-08T02:28:02.708Z,25.90
2018-02-08T02:29:09.435Z,26.10
2018-02-08T02:30:16.144Z,25.30
2018-02-08T02:31:22.831Z,26.10
2018-02-08T02:32:29.536Z,25.20
2018-02-08T02:33:36.365Z,25.20
2018-02-08T02:34:43.076Z,24.60
2018-02-08T02:35:49.756Z,25.20
2018-02-08T02:36:56.431Z,24.80
2018-02-08T02:38:03.151Z,24.30
2018-02-08T02:39:09.829Z,23.60
2018-02-08T02:40:16.564Z,24.40
2018-02-08T02:41:23.239Z,24.10
2018-02-08T02:42:29.922Z,25.10
2018-02-08T02:43:36.587Z,24.90
2018-02-08T02:44:43.404Z,25.20
2018-02-08T02:45:50.139Z,24.20
2018-02-08T02:46:56.848Z,24.10
2018-02-08T02:48:03.560Z,23.60
2018-02-08T02:49:10.291Z,24.90
2018-02-08T02:50:16.995Z,22.70
2018-02-08T02:51:23.788Z,23.40
2018-02-08T02:52:30.490Z,24.30
2018-02-08T02:53:37.205Z,23.40
2018-02-08T02:54:43.900Z,23.30
2018-02-08T02:55:50.667Z,22.90
2018-02-08T02:56:57.353Z,23.00
2018-02-08T02:58:04.364Z,24.50
2018-02-08T02:59:11.067Z,23.40
2018-02-08T03:00:17.764Z,24.00
2018-02-08T03:01:24.625Z,24.80
2018-02-08T03:02:31.314Z,23.60
2018-02-08T03:03:38.044Z,23.80
2018-02-08T03:04:44.778Z,23.00
2018-02-08T03:05:51.471Z,23.80
2018-02-08T03:06:58.155Z,24.40
2018-02-08T03:08:04.843Z,24.50
2018-02-08T03:09:11.717Z,25.00
2018-02-08T03:10:18.423Z,23.40
2018-02-08T03:11:30.314Z,22.80
2018-02-08T03:12:32.096Z,22.80
2018-02-08T03:13:38.798Z,23.20
2018-02-08T03:14:45.495Z,23.40
2018-02-08T03:15:52.187Z,23.70
2018-02-08T03:16:58.905Z,23.40
2018-02-08T03:18:05.600Z,24.40
2018-02-08T03:19:12.297Z,23.20
2018-02-08T03:20:18.987Z,24.10
2018-02-08T03:21:25.675Z,23.50
2018-02-08T03:22:32.455Z,23.20
2018-02-08T03:23:39.149Z,22.50
2018-02-08T03:24:45.832Z,24.00
2018-02-08T03:25:52.522Z,24.00
2018-02-08T03:26:59.223Z,23.80
2018-02-08T03:28:05.952Z,23.90
2018-02-08T03:29:12.651Z,23.10
2018-02-08T03:30:19.480Z,24.30
2018-02-08T03:31:26.272Z,23.80
2018-02-08T03:32:33.032Z,23.60
2018-02-08T03:33:39.729Z,23.60
2018-02-08T03:34:46.411Z,23.10
2018-02-08T03:35:53.576Z,23.80
2018-02-08T03:37:00.763Z,24.60
2018-02-08T03:38:07.578Z,22.80
2018-02-08T03:39:14.260Z,23.10
2018-02-08T03:40:20.943Z,24.40
2018-02-08T03:41:27.656Z,24.10
2018-02-08T03:42:34.367Z,24.20
2018-02-08T03:43:41.071Z,23.10
2018-02-08T03:44:47.739Z,23.20
2018-02-08T03:45:54.439Z,23.10
2018-02-08T03:47:01.160Z,22.60
2018-02-08T03:48:07.971Z,23.50
2018-02-08T03:49:14.663Z,22.30
2018-02-08T03:50:21.836Z,23.20
2018-02-08T03:51:28.523Z,22.70
2018-02-08T03:52:35.215Z,22.30
2018-02-08T03:53:41.999Z,23.40
2018-02-08T03:54:48.683Z,23.30
2018-02-08T03:55:55.364Z,24.00
2018-02-08T03:57:02.068Z,23.30
2018-02-08T03:58:08.871Z,22.60
2018-02-08T03:59:15.542Z,23.20
2018-02-08T04:00:22.232Z,23.10
2018-02-08T04:01:28.928Z,23.60
2018-02-08T04:02:35.648Z,23.90
2018-02-08T04:03:42.380Z,25.20
2018-02-08T04:04:49.200Z,22.70
2018-02-08T04:05:56.045Z,24.20
2018-02-08T04:07:02.872Z,22.20
2018-02-08T04:08:09.633Z,23.50
2018-02-08T04:09:16.387Z,23.00
2018-02-08T04:10:23.115Z,23.60
2018-02-08T04:11:29.867Z,23.30
2018-02-08T04:12:36.587Z,23.20
2018-02-08T04:13:43.359Z,22.70
2018-02-08T04:14:50.107Z,24.00
2018-02-08T04:15:56.827Z,21.50
2018-02-08T04:17:03.580Z,23.30
2018-02-08T04:18:10.500Z,24.10
2018-02-08T04:19:17.244Z,24.00
2018-02-08T04:20:23.964Z,23.50
2018-02-08T04:21:30.713Z,23.40
2018-02-08T04:22:37.457Z,23.90
2018-02-08T04:23:44.293Z,23.40
2018-02-08T04:24:51.031Z,24.00
2018-02-08T04:25:57.764Z,23.80
2018-02-08T04:27:04.599Z,23.00
2018-02-08T04:28:11.408Z,22.40
2018-02-08T04:29:18.135Z,22.60
2018-02-08T04:30:24.851Z,23.10
2018-02-08T04:31:31.603Z,22.00
2018-02-08T04:32:38.327Z,24.30
2018-02-08T04:33:45.076Z,22.80
2018-02-08T04:34:51.879Z,24.40
2018-02-08T04:35:58.572Z,23.70
2018-02-08T04:37:05.321Z,23.60
2018-02-08T04:38:12.134Z,24.20
2018-02-08T04:39:19.032Z,23.70
2018-02-08T04:40:25.995Z,24.00
2018-02-08T04:41:33.042Z,23.30
2018-02-08T04:42:39.839Z,23.40
2018-02-08T04:43:46.683Z,28.70
2018-02-08T04:44:53.570Z,34.70
2018-02-08T04:46:00.511Z,28.90
2018-02-08T04:47:12.853Z,27.50
2018-02-08T04:48:19.691Z,28.30
2018-02-08T04:49:26.472Z,25.80
2018-02-08T04:50:33.183Z,25.60
2018-02-08T04:51:39.975Z,24.80
2018-02-08T04:52:46.713Z,26.30
2018-02-08T04:53:53.416Z,24.20
2018-02-08T04:55:00.127Z,25.00
2018-02-08T04:56:06.940Z,23.90
2018-02-08T04:57:13.659Z,24.70
2018-02-08T04:58:20.450Z,24.50
2018-02-08T04:59:27.276Z,24.50
2018-02-08T05:00:34.175Z,25.60
2018-02-08T05:01:40.939Z,26.70
2018-02-08T05:02:47.728Z,25.20
2018-02-08T05:03:54.559Z,25.40
2018-02-08T05:05:01.278Z,23.80
2018-02-08T05:06:08.037Z,23.90
2018-02-08T05:07:14.757Z,23.40
2018-02-08T05:08:21.484Z,23.30
2018-02-08T05:09:28.191Z,24.30
2018-02-08T05:10:34.875Z,23.10
2018-02-08T05:11:41.651Z,22.40
2018-02-08T05:12:48.348Z,24.90
2018-02-08T05:13:55.292Z,22.40
2018-02-08T05:15:02.151Z,23.30
2018-02-08T05:16:08.900Z,24.50
2018-02-08T05:17:15.603Z,22.80
2018-02-08T05:18:22.325Z,23.80
2018-02-08T05:19:29.023Z,22.60
2018-02-08T05:20:35.708Z,22.60
2018-02-08T05:21:42.502Z,22.20
2018-02-08T05:22:49.223Z,22.80
2018-02-08T05:23:55.914Z,22.50
2018-02-08T05:25:02.595Z,23.40
2018-02-08T05:26:09.287Z,23.00
2018-02-08T05:27:15.975Z,22.00
2018-02-08T05:28:22.696Z,22.80
2018-02-08T05:29:29.375Z,23.90
2018-02-08T05:30:36.087Z,22.60
2018-02-08T05:31:42.760Z,25.00
2018-02-08T05:32:49.467Z,23.10
2018-02-08T05:33:56.246Z,22.90
2018-02-08T05:35:02.945Z,22.40
2018-02-08T05:36:09.722Z,22.90
2018-02-08T05:37:16.419Z,24.10
2018-02-08T05:38:23.141Z,24.10
2018-02-08T05:39:30.083Z,24.30
2018-02-08T05:40:36.788Z,23.40
2018-02-08T05:41:43.485Z,23.50
2018-02-08T05:42:50.217Z,24.10
2018-02-08T05:43:56.931Z,23.70
2018-02-08T05:45:03.611Z,23.30
2018-02-08T05:46:10.292Z,23.80
2018-02-08T05:47:16.999Z,23.50
2018-02-08T05:48:23.685Z,23.70
2018-02-08T05:49:30.494Z,22.70
2018-02-08T05:50:37.246Z,23.60
2018-02-08T05:51:43.956Z,23.90
2018-02-08T05:52:50.644Z,23.40
2018-02-08T05:53:57.348Z,25.00
2018-02-08T05:55:04.132Z,24.80
2018-02-08T05:56:10.792Z,23.80
2018-02-08T05:57:17.575Z,23.00
2018-02-08T05:58:24.311Z,23.40
2018-02-08T05:59:30.984Z,21.60
2018-02-08T06:00:37.670Z,23.70
2018-02-08T06:01:44.353Z,23.80
2018-02-08T06:02:51.539Z,24.10
2018-02-08T06:03:58.212Z,24.30
2018-02-08T06:05:04.960Z,23.70
2018-02-08T06:06:11.679Z,24.00
2018-02-08T06:07:18.464Z,23.40
2018-02-08T06:08:25.241Z,25.10
2018-02-08T06:09:31.979Z,24.30
2018-02-08T06:10:38.703Z,23.00
2018-02-08T06:11:45.460Z,23.30
2018-02-08T06:12:52.200Z,24.30
2018-02-08T06:13:59.153Z,24.20
2018-02-08T06:15:06.618Z,22.60
2018-02-08T06:16:12.943Z,22.90
2018-02-08T06:17:19.839Z,23.50
2018-02-08T06:18:26.798Z,23.80
2018-02-08T06:19:33.635Z,23.60
2018-02-08T06:20:40.363Z,24.20
2018-02-08T06:21:47.198Z,24.40
2018-02-08T06:22:54.055Z,23.60
2018-02-08T06:24:00.838Z,23.20
2018-02-08T06:25:07.680Z,23.30
2018-02-08T06:26:14.556Z,23.50
2018-02-08T06:27:21.434Z,23.70
2018-02-08T06:28:28.144Z,25.00
2018-02-08T06:29:34.882Z,23.50
2018-02-08T06:30:41.626Z,23.50
2018-02-08T06:31:48.372Z,23.60
2018-02-08T06:32:55.130Z,23.80
2018-02-08T06:34:01.965Z,23.40
2018-02-08T06:35:08.700Z,22.80
2018-02-08T06:36:15.461Z,23.90
2018-02-08T06:37:22.332Z,24.40
2018-02-08T06:38:29.136Z,24.00
2018-02-08T06:39:35.851Z,23.60
2018-02-08T06:40:42.560Z,23.90
2018-02-08T06:41:49.288Z,24.50
2018-02-08T06:42:56.297Z,24.90
2018-02-08T06:44:03.035Z,23.50
2018-02-08T06:45:09.808Z,25.50
2018-02-08T06:46:16.539Z,27.40
2018-02-08T06:47:23.278Z,27.00
2018-02-08T06:48:30.139Z,25.60
2018-02-08T06:49:36.875Z,26.60
2018-02-08T06:50:43.631Z,25.30
2018-02-08T06:51:50.669Z,24.60
2018-02-08T06:52:57.476Z,25.50
2018-02-08T06:54:04.236Z,25.90
2018-02-08T06:55:10.977Z,26.40
2018-02-08T06:56:17.771Z,25.50
2018-02-08T06:57:24.789Z,25.20
2018-02-08T06:58:31.616Z,24.90
2018-02-08T06:59:38.362Z,25.50
2018-02-08T07:00:45.119Z,26.10
2018-02-08T07:01:51.885Z,26.20
2018-02-08T07:02:58.771Z,25.30
2018-02-08T07:04:05.581Z,24.20
2018-02-08T07:05:12.516Z,24.10
2018-02-08T07:06:19.279Z,25.10
2018-02-08T07:07:26.052Z,25.20
2018-02-08T07:08:32.781Z,26.10
2018-02-08T07:09:39.490Z,29.70
2018-02-08T07:10:46.175Z,30.80
2018-02-08T07:11:52.972Z,29.60
2018-02-08T07:12:59.796Z,30.00
2018-02-08T07:14:06.533Z,26.60
2018-02-08T07:15:13.291Z,24.10
2018-02-08T07:16:19.980Z,24.70
2018-02-08T07:17:26.699Z,24.90
2018-02-08T07:18:33.352Z,24.90
2018-02-08T07:19:40.142Z,25.10
2018-02-08T07:20:46.943Z,23.70
2018-02-08T07:21:53.714Z,24.60
2018-02-08T07:23:00.424Z,25.20
2018-02-08T07:24:07.280Z,23.30
2018-02-08T07:25:14.080Z,23.00
2018-02-08T07:26:20.760Z,23.90
2018-02-08T07:27:27.435Z,24.50
2018-02-08T07:28:34.119Z,25.00
2018-02-08T07:29:40.867Z,25.10
2018-02-08T07:30:47.607Z,24.70
2018-02-08T07:31:54.628Z,24.70
2018-02-08T07:33:01.308Z,25.70
2018-02-08T07:34:08.057Z,26.80
2018-02-08T07:35:14.780Z,24.50
2018-02-08T07:36:21.488Z,23.80
2018-02-08T07:37:28.275Z,24.40
2018-02-08T07:38:35.068Z,26.00
2018-02-08T07:39:41.847Z,24.70
2018-02-08T07:40:48.579Z,24.70
2018-02-08T07:41:55.324Z,26.30
2018-02-08T07:43:02.019Z,25.90
2018-02-08T07:44:08.707Z,25.50
2018-02-08T07:45:15.408Z,25.30
2018-02-08T07:46:22.196Z,25.50
2018-02-08T07:47:28.923Z,27.10
2018-02-08T07:48:35.679Z,26.20
2018-02-08T07:49:42.478Z,26.10
2018-02-08T07:50:49.204Z,25.40
2018-02-08T07:51:56.018Z,26.70
2018-02-08T07:53:02.691Z,25.90
2018-02-08T07:54:09.367Z,26.10
2018-02-08T07:55:16.079Z,27.50
2018-02-08T07:56:22.781Z,25.10
2018-02-08T07:57:29.519Z,26.40
2018-02-08T07:58:36.202Z,26.70
2018-02-08T07:59:42.918Z,25.40
2018-02-08T08:00:49.615Z,25.40
2018-02-08T08:01:56.308Z,26.70
2018-02-08T08:03:03.471Z,26.90
2018-02-08T08:04:10.184Z,25.50
2018-02-08T08:05:17.013Z,30.00
2018-02-08T08:06:23.792Z,48.20
2018-02-08T08:07:30.573Z,37.40
2018-02-08T08:08:37.323Z,36.30
2018-02-08T08:09:44.164Z,33.90
2018-02-08T08:10:51.012Z,29.50
2018-02-08T08:11:57.804Z,27.50
2018-02-08T08:13:04.538Z,28.30
2018-02-08T08:14:11.323Z,27.60
2018-02-08T08:15:18.070Z,26.80
2018-02-08T08:16:24.847Z,27.70
2018-02-08T08:17:31.645Z,29.20
2018-02-08T08:18:38.511Z,28.90
2018-02-08T08:19:45.260Z,28.70
2018-02-08T08:20:52.024Z,27.70
2018-02-08T08:21:58.768Z,28.40
2018-02-08T08:23:05.653Z,29.30
2018-02-08T08:24:12.428Z,29.60
2018-02-08T08:25:19.167Z,28.40
2018-02-08T08:26:25.936Z,29.80
2018-02-08T08:27:32.824Z,30.30
2018-02-08T08:28:39.591Z,30.20
2018-02-08T08:29:46.367Z,28.80
2018-02-08T08:30:53.100Z,29.10
2018-02-08T08:31:59.992Z,29.80
2018-02-08T08:33:06.749Z,29.40
2018-02-08T08:34:13.548Z,28.20
2018-02-08T08:35:20.316Z,28.70
2018-02-08T08:36:27.129Z,30.00
2018-02-08T08:37:33.888Z,29.00
2018-02-08T08:38:40.765Z,30.40
2018-02-08T08:39:47.631Z,30.90
2018-02-08T08:40:54.363Z,31.80
2018-02-08T08:42:01.171Z,29.40
2018-02-08T08:43:07.892Z,30.40
2018-02-08T08:44:14.621Z,29.80
2018-02-08T08:45:21.423Z,31.40
2018-02-08T08:46:28.135Z,31.00
2018-02-08T08:47:34.963Z,30.40
2018-02-08T08:48:41.678Z,30.10
2018-02-08T08:49:48.407Z,32.20
2018-02-08T08:50:55.251Z,32.80
2018-02-08T08:52:01.956Z,33.10
2018-02-08T08:53:09.080Z,32.50
2018-02-08T08:54:15.844Z,31.40
2018-02-08T08:55:22.576Z,30.60
2018-02-08T08:56:29.320Z,32.10
2018-02-08T08:57:36.064Z,32.50
2018-02-08T08:58:42.867Z,32.00
2018-02-08T08:59:49.595Z,31.70
2018-02-08T09:00:56.419Z,32.00
2018-02-08T09:02:03.199Z,31.90
2018-02-08T09:03:10.020Z,32.10
2018-02-08T09:04:16.756Z,33.20
2018-02-08T09:05:23.500Z,37.60
2018-02-08T09:06:30.208Z,35.50
2018-02-08T09:07:36.908Z,34.00
2018-02-08T09:08:43.612Z,34.30
2018-02-08T09:09:50.408Z,38.70
2018-02-08T09:10:57.095Z,36.80
2018-02-08T09:12:03.864Z,35.10
2018-02-08T09:13:10.607Z,37.50
2018-02-08T09:14:17.398Z,32.40
2018-02-08T09:15:24.171Z,31.30
2018-02-08T09:16:30.863Z,32.50
2018-02-08T09:17:37.616Z,31.90
2018-02-08T09:18:44.334Z,37.40
2018-02-08T09:19:51.017Z,34.50
2018-02-08T09:20:57.734Z,34.70
2018-02-08T09:22:04.423Z,34.00
2018-02-08T09:23:11.099Z,31.20
2018-02-08T09:24:17.823Z,32.10
2018-02-08T09:25:24.610Z,31.90
2018-02-08T09:26:31.303Z,33.00
2018-02-08T09:27:37.988Z,35.00
2018-02-08T09:28:44.715Z,32.70
2018-02-08T09:29:51.403Z,34.60
2018-02-08T09:30:58.107Z,32.40
2018-02-08T09:32:04.795Z,35.60
2018-02-08T09:33:11.522Z,35.70
2018-02-08T09:34:18.219Z,34.80
2018-02-08T09:35:25.043Z,34.20
2018-02-08T09:36:31.722Z,35.80
2018-02-08T09:37:38.469Z,33.50
2018-02-08T09:38:45.363Z,35.00
2018-02-08T09:39:52.255Z,38.30
2018-02-08T09:40:58.907Z,34.20
2018-02-08T09:42:05.604Z,35.60
2018-02-08T09:43:12.288Z,33.10
2018-02-08T09:44:19.124Z,34.30
2018-02-08T09:45:25.832Z,34.10
2018-02-08T09:46:32.666Z,32.50
2018-02-08T09:47:39.327Z,35.10
2018-02-08T09:48:46.023Z,35.30
2018-02-08T09:49:52.759Z,34.10
2018-02-08T09:50:59.474Z,35.00
2018-02-08T09:52:06.248Z,36.10
2018-02-08T09:53:12.967Z,35.70
2018-02-08T09:54:19.803Z,40.20
2018-02-08T09:55:26.507Z,35.40
2018-02-08T09:56:33.201Z,35.70
2018-02-08T09:57:39.904Z,34.30
2018-02-08T09:58:46.583Z,34.70
2018-02-08T09:59:53.280Z,33.60
2018-02-08T10:00:59.979Z,31.80
2018-02-08T10:02:06.688Z,32.40
2018-02-08T10:03:13.418Z,32.30
2018-02-08T10:04:20.229Z,32.90
2018-02-08T10:05:27.151Z,33.60
2018-02-08T10:06:33.844Z,31.70
2018-02-08T10:07:40.565Z,32.50
2018-02-08T10:08:47.239Z,31.80
2018-02-08T10:09:54.065Z,32.80
2018-02-08T10:11:00.899Z,32.80
2018-02-08T10:12:07.648Z,33.70
2018-02-08T10:13:14.375Z,32.30
2018-02-08T10:14:21.160Z,31.30
2018-02-08T10:15:27.909Z,29.90
2018-02-08T10:16:34.597Z,31.50
2018-02-08T10:17:41.271Z,31.10
2018-02-08T10:18:47.948Z,31.20
2018-02-08T10:19:54.656Z,30.10
2018-02-08T10:21:01.391Z,29.60
2018-02-08T10:22:08.336Z,30.80
2018-02-08T10:23:15.069Z,28.50
2018-02-08T10:24:21.781Z,31.50
2018-02-08T10:25:28.499Z,31.40
2018-02-08T10:26:35.242Z,30.30
2018-02-08T10:27:41.956Z,31.10
2018-02-08T10:28:48.642Z,31.40
2018-02-08T10:29:55.348Z,31.70
2018-02-08T10:31:02.039Z,30.00
2018-02-08T10:32:08.720Z,32.60
2018-02-08T10:33:15.392Z,29.70
2018-02-08T10:34:22.204Z,28.60
2018-02-08T10:35:28.968Z,29.30
2018-02-08T10:36:35.737Z,30.90
2018-02-08T10:37:42.432Z,29.80
2018-02-08T10:38:49.115Z,29.10
2018-02-08T10:39:55.788Z,28.20
2018-02-08T10:41:02.540Z,29.60
2018-02-08T10:42:09.303Z,28.20
2018-02-08T10:43:16.044Z,27.80
2018-02-08T10:44:22.767Z,27.60
2018-02-08T10:45:29.456Z,27.70
2018-02-08T10:46:36.180Z,30.50
2018-02-08T10:47:42.961Z,28.70
2018-02-08T10:48:49.768Z,28.90
2018-02-08T10:49:56.445Z,36.70
2018-02-08T10:51:03.149Z,36.60
2018-02-08T10:52:09.888Z,34.00
2018-02-08T10:53:16.632Z,32.70
2018-02-08T10:54:23.356Z,33.40
2018-02-08T10:55:30.224Z,27.70
2018-02-08T10:56:36.957Z,31.40
2018-02-08T10:57:43.695Z,30.00
2018-02-08T10:58:50.380Z,32.50
2018-02-08T10:59:57.155Z,29.40
2018-02-08T11:01:03.832Z,30.30
2018-02-08T11:02:10.530Z,30.60
2018-02-08T11:03:17.411Z,31.50
2018-02-08T11:04:24.088Z,31.50
2018-02-08T11:05:30.827Z,29.90
2018-02-08T11:06:37.524Z,29.60
2018-02-08T11:07:44.295Z,29.50
2018-02-08T11:08:51.116Z,29.70
2018-02-08T11:09:57.823Z,30.20
2018-02-08T11:11:04.591Z,30.60
2018-02-08T11:12:11.316Z,28.80
2018-02-08T11:13:18.061Z,31.80
2018-02-08T11:14:24.755Z,30.10
2018-02-08T11:15:31.572Z,30.50
2018-02-08T11:16:38.375Z,33.00
2018-02-08T11:17:45.098Z,32.50
2018-02-08T11:18:51.852Z,30.80
2018-02-08T11:19:58.550Z,30.30
2018-02-08T11:21:05.371Z,30.30
2018-02-08T11:22:12.107Z,32.40
2018-02-08T11:23:18.835Z,29.90
2018-02-08T11:24:25.563Z,30.10
2018-02-08T11:25:32.315Z,30.00
2018-02-08T11:26:39.031Z,29.20
2018-02-08T11:27:45.927Z,29.90
2018-02-08T11:28:52.763Z,30.50
2018-02-08T11:29:59.482Z,30.70
2018-02-08T11:31:06.275Z,29.50
2018-02-08T11:32:12.976Z,29.30
2018-02-08T11:33:19.724Z,29.40
2018-02-08T11:34:26.436Z,26.80
2018-02-08T11:35:33.167Z,27.20
2018-02-08T11:36:39.886Z,28.90
2018-02-08T11:37:46.762Z,28.80
2018-02-08T11:38:53.525Z,30.30
2018-02-08T11:40:00.259Z,28.10
2018-02-08T11:41:07.060Z,29.00
2018-02-08T11:42:13.848Z,29.20
2018-02-08T11:43:20.686Z,27.60
2018-02-08T11:44:27.507Z,28.60
2018-02-08T11:45:34.324Z,29.00
2018-02-08T11:46:41.047Z,29.10
2018-02-08T11:47:47.783Z,29.20
2018-02-08T11:48:54.505Z,27.60
2018-02-08T11:50:01.243Z,30.10
2018-02-08T11:51:07.955Z,29.60
2018-02-08T11:52:14.752Z,27.80
2018-02-08T11:53:21.458Z,28.20
2018-02-08T11:54:28.223Z,27.60
2018-02-08T11:55:34.955Z,26.80
2018-02-08T11:56:41.638Z,28.00
2018-02-08T11:57:48.351Z,29.80
2018-02-08T11:58:55.179Z,28.80
2018-02-08T12:00:01.968Z,27.60
2018-02-08T12:01:08.816Z,28.50
2018-02-08T12:02:15.502Z,27.90
2018-02-08T12:03:22.315Z,25.20
2018-02-08T12:04:29.118Z,26.20
2018-02-08T12:05:35.902Z,26.70
2018-02-08T12:06:42.772Z,27.00
2018-02-08T12:07:49.551Z,27.10
2018-02-08T12:08:56.347Z,25.40
2018-02-08T12:10:03.171Z,27.00
2018-02-08T12:11:09.934Z,27.50
2018-02-08T12:12:16.673Z,26.70
2018-02-08T12:13:23.458Z,26.90
2018-02-08T12:14:30.247Z,27.60
2018-02-08T12:15:37.068Z,25.70
2018-02-08T12:16:43.808Z,25.50
2018-02-08T12:17:50.565Z,26.70
2018-02-08T12:18:57.319Z,24.50
2018-02-08T12:20:04.333Z,25.40
2018-02-08T12:21:11.163Z,26.10
2018-02-08T12:22:18.215Z,25.40
2018-02-08T12:23:24.872Z,26.50
2018-02-08T12:24:31.626Z,25.70
2018-02-08T12:25:38.521Z,25.10
2018-02-08T12:26:45.411Z,25.90
2018-02-08T12:27:52.275Z,25.40
2018-02-08T12:28:59.040Z,24.20
2018-02-08T12:30:05.840Z,24.70
2018-02-08T12:31:12.647Z,24.20
2018-02-08T12:32:19.403Z,25.50
2018-02-08T12:33:26.175Z,25.30
2018-02-08T12:34:32.939Z,25.40
2018-02-08T12:35:39.736Z,27.90
2018-02-08T12:36:46.572Z,27.50
2018-02-08T12:37:53.617Z,26.00
2018-02-08T12:39:00.383Z,25.60
2018-02-08T12:40:07.509Z,26.50
2018-02-08T12:41:14.292Z,27.10
2018-02-08T12:42:21.061Z,25.00
2018-02-08T12:43:27.982Z,27.30
2018-02-08T12:44:34.905Z,26.60
2018-02-08T12:45:41.796Z,26.30
2018-02-08T12:46:48.585Z,27.40
2018-02-08T12:47:55.387Z,26.90
2018-02-08T12:49:02.570Z,26.10
2018-02-08T12:50:09.416Z,26.30
2018-02-08T12:51:16.222Z,25.40
2018-02-08T12:52:22.999Z,25.50
2018-02-08T12:53:29.760Z,24.60
2018-02-08T12:54:36.551Z,24.40
2018-02-08T12:55:43.340Z,24.90
2018-02-08T12:56:50.108Z,24.70
2018-02-08T12:57:57.006Z,25.00
2018-02-08T12:59:03.962Z,24.30
2018-02-08T13:00:10.812Z,23.90
2018-02-08T13:01:17.595Z,23.80
2018-02-08T13:02:24.391Z,22.70
2018-02-08T13:03:31.551Z,25.80
2018-02-08T13:04:38.416Z,25.00
2018-02-08T13:05:45.199Z,23.70
2018-02-08T13:06:51.947Z,23.60
2018-02-08T13:08:02.026Z,28.40
2018-02-08T13:09:05.518Z,29.30
2018-02-08T13:10:12.227Z,28.30
2018-02-08T13:11:18.959Z,29.40
2018-02-08T13:12:25.765Z,26.60
2018-02-08T13:13:32.623Z,24.90
2018-02-08T13:14:39.351Z,25.70
2018-02-08T13:15:46.098Z,24.90
2018-02-08T13:16:52.868Z,25.00
2018-02-08T13:17:59.594Z,24.10
2018-02-08T13:19:06.397Z,24.50
2018-02-08T13:20:13.203Z,25.40
2018-02-08T13:21:20.204Z,24.10
2018-02-08T13:22:26.952Z,25.00
2018-02-08T13:23:33.730Z,24.20
2018-02-08T13:24:40.540Z,23.10
2018-02-08T13:25:47.340Z,24.00
2018-02-08T13:26:54.072Z,23.20
2018-02-08T13:28:00.838Z,23.30
2018-02-08T13:29:07.567Z,24.10
2018-02-08T13:30:14.475Z,25.00
2018-02-08T13:31:21.204Z,24.90
2018-02-08T13:32:28.057Z,24.40
2018-02-08T13:33:34.938Z,25.40
2018-02-08T13:34:41.650Z,23.40
2018-02-08T13:35:48.445Z,24.60
2018-02-08T13:36:55.155Z,23.00
2018-02-08T13:38:02.023Z,24.10
2018-02-08T13:39:08.809Z,22.50
2018-02-08T13:40:15.613Z,22.90
2018-02-08T13:41:22.535Z,24.30
2018-02-08T13:42:29.303Z,25.20
2018-02-08T13:43:36.125Z,23.80
2018-02-08T13:44:42.935Z,22.60
2018-02-08T13:45:49.700Z,23.90
2018-02-08T13:46:56.591Z,22.20
2018-02-08T13:48:03.477Z,24.00
2018-02-08T13:49:10.300Z,22.30
2018-02-08T13:50:17.196Z,23.60
2018-02-08T13:51:24.039Z,24.70
2018-02-08T13:52:31.004Z,22.60
2018-02-08T13:53:37.828Z,22.90
2018-02-08T13:54:44.723Z,23.20
2018-02-08T13:55:51.595Z,23.80
2018-02-08T13:56:58.431Z,22.60
2018-02-08T13:58:05.314Z,22.90
2018-02-08T13:59:12.095Z,23.10
2018-02-08T14:00:18.891Z,22.70
2018-02-08T14:01:25.759Z,22.00
2018-02-08T14:02:32.562Z,22.30
2018-02-08T14:03:39.376Z,22.90
2018-02-08T14:04:46.223Z,23.20
2018-02-08T14:05:53.019Z,23.30
2018-02-08T14:06:59.746Z,22.40
2018-02-08T14:08:06.556Z,22.50
2018-02-08T14:09:13.343Z,22.30
2018-02-08T14:10:20.102Z,22.10
2018-02-08T14:11:26.888Z,20.70
2018-02-08T14:12:33.784Z,21.60
2018-02-08T14:13:40.562Z,21.90
2018-02-08T14:14:47.357Z,21.30
2018-02-08T14:15:54.236Z,21.40
2018-02-08T14:17:00.988Z,21.80
2018-02-08T14:18:07.760Z,22.60
2018-02-08T14:19:14.534Z,21.40